sensor_id;sensor_type;location;lat;lon;timestamp;temperature;humidity
49148;DHT22;41980;45.550;12.070;2022-08-03T00:04:17;25.50;55.90
49148;DHT22;41980;45.550;12.070;2022-08-03T00:10:19;25.20;56.30
49148;DHT22;41980;45.550;12.070;2022-08-03T00:16:21;25.10;56.50
49148;DHT22;41980;45.550;12.070;2022-08-03T00:22:26;25.00;57.00
49148;DHT22;41980;45.550;12.070;2022-08-03T00:28:28;25.00;57.00
49148;DHT22;41980;45.550;12.070;2022-08-03T00:34:30;24.90;57.70
49148;DHT22;41980;45.550;12.070;2022-08-03T00:40:32;24.80;57.80
49148;DHT22;41980;45.550;12.070;2022-08-03T00:46:35;24.70;57.70
49148;DHT22;41980;45.550;12.070;2022-08-03T00:52:37;24.70;58.20
49148;DHT22;41980;45.550;12.070;2022-08-03T01:35:13;24.40;58.40
49148;DHT22;41980;45.550;12.070;2022-08-03T01:41:21;24.30;58.30
49148;DHT22;41980;45.550;12.070;2022-08-03T01:47:28;24.30;58.30
49148;DHT22;41980;45.550;12.070;2022-08-03T01:53:33;24.30;58.40
49148;DHT22;41980;45.550;12.070;2022-08-03T02:23:49;24.90;56.30
49148;DHT22;41980;45.550;12.070;2022-08-03T02:29:55;24.40;58.00
49148;DHT22;41980;45.550;12.070;2022-08-03T02:36:02;24.40;58.10
49148;DHT22;41980;45.550;12.070;2022-08-03T02:42:08;24.40;58.10
49148;DHT22;41980;45.550;12.070;2022-08-03T02:48:16;24.40;57.90
49148;DHT22;41980;45.550;12.070;2022-08-03T03:06:27;24.80;56.70
49148;DHT22;41980;45.550;12.070;2022-08-03T03:12:31;24.10;58.70
49148;DHT22;41980;45.550;12.070;2022-08-03T03:18:34;24.00;58.60
49148;DHT22;41980;45.550;12.070;2022-08-03T03:54:50;24.30;56.70
49148;DHT22;41980;45.550;12.070;2022-08-03T04:00:52;23.60;58.20
49148;DHT22;41980;45.550;12.070;2022-08-03T04:06:58;23.50;58.60
49148;DHT22;41980;45.550;12.070;2022-08-03T04:13:07;23.50;58.70
49148;DHT22;41980;45.550;12.070;2022-08-03T04:19:16;23.50;58.70
49148;DHT22;41980;45.550;12.070;2022-08-03T04:25:20;23.50;58.90
49148;DHT22;41980;45.550;12.070;2022-08-03T04:43:34;24.30;56.80
49148;DHT22;41980;45.550;12.070;2022-08-03T04:49:37;23.80;58.40
49148;DHT22;41980;45.550;12.070;2022-08-03T05:07:45;24.60;57.90
49148;DHT22;41980;45.550;12.070;2022-08-03T05:13:47;25.00;57.30
49148;DHT22;41980;45.550;12.070;2022-08-03T05:19:49;26.80;55.80
49148;DHT22;41980;45.550;12.070;2022-08-03T05:25:51;29.30;53.40
49148;DHT22;41980;45.550;12.070;2022-08-03T05:37:55;33.10;50.10
49148;DHT22;41980;45.550;12.070;2022-08-03T09:27:41;40.90;31.50
49148;DHT22;41980;45.550;12.070;2022-08-03T09:33:48;40.30;32.30
49148;DHT22;41980;45.550;12.070;2022-08-03T10:04:19;40.50;31.20
49148;DHT22;41980;45.550;12.070;2022-08-03T10:10:21;40.40;31.10
49148;DHT22;41980;45.550;12.070;2022-08-03T10:16:23;39.50;32.20
49148;DHT22;41980;45.550;12.070;2022-08-03T10:22:27;39.60;32.60
49148;DHT22;41980;45.550;12.070;2022-08-03T10:28:33;39.60;32.70
49148;DHT22;41980;45.550;12.070;2022-08-03T15:08:00;33.80;35.00
49148;DHT22;41980;45.550;12.070;2022-08-03T15:14:02;33.10;34.30
49148;DHT22;41980;45.550;12.070;2022-08-03T15:20:05;33.00;33.80
49148;DHT22;41980;45.550;12.070;2022-08-03T16:38:40;33.20;33.10
49148;DHT22;41980;45.550;12.070;2022-08-03T16:44:42;32.50;34.70
49148;DHT22;41980;45.550;12.070;2022-08-03T16:50:44;32.40;34.90
49148;DHT22;41980;45.550;12.070;2022-08-03T16:56:47;32.40;34.90
49148;DHT22;41980;45.550;12.070;2022-08-03T17:02:50;32.40;34.90
49148;DHT22;41980;45.550;12.070;2022-08-03T17:08:53;32.30;35.00
49148;DHT22;41980;45.550;12.070;2022-08-03T17:14:55;32.20;35.20
49148;DHT22;41980;45.550;12.070;2022-08-03T17:20:57;32.00;35.40
49148;DHT22;41980;45.550;12.070;2022-08-03T17:27:03;32.00;35.50
49148;DHT22;41980;45.550;12.070;2022-08-03T17:33:05;31.90;35.70
49148;DHT22;41980;45.550;12.070;2022-08-03T17:39:07;31.80;35.80
49148;DHT22;41980;45.550;12.070;2022-08-03T17:51:19;31.50;36.00
49148;DHT22;41980;45.550;12.070;2022-08-03T18:39:48;31.10;36.80
49148;DHT22;41980;45.550;12.070;2022-08-03T18:45:54;31.10;36.80
49148;DHT22;41980;45.550;12.070;2022-08-03T18:52:03;30.20;38.20
49148;DHT22;41980;45.550;12.070;2022-08-03T19:10:30;29.70;39.30
49148;DHT22;41980;45.550;12.070;2022-08-03T19:16:37;29.50;39.80
49148;DHT22;41980;45.550;12.070;2022-08-03T19:22:41;29.40;40.00
49148;DHT22;41980;45.550;12.070;2022-08-03T19:28:47;29.40;40.20
49148;DHT22;41980;45.550;12.070;2022-08-03T20:05:17;29.60;40.40
49148;DHT22;41980;45.550;12.070;2022-08-03T20:11:19;29.60;40.30
49148;DHT22;41980;45.550;12.070;2022-08-03T20:35:32;28.50;42.50
49148;DHT22;41980;45.550;12.070;2022-08-03T20:41:35;28.50;42.50
49148;DHT22;41980;45.550;12.070;2022-08-03T20:53:45;28.30;43.00
49148;DHT22;41980;45.550;12.070;2022-08-03T20:59:47;28.20;43.50
49148;DHT22;41980;45.550;12.070;2022-08-03T21:05:51;28.00;43.90
49148;DHT22;41980;45.550;12.070;2022-08-03T21:11:54;28.00;44.30
49148;DHT22;41980;45.550;12.070;2022-08-03T21:18:02;27.90;44.80
49148;DHT22;41980;45.550;12.070;2022-08-03T21:42:15;27.50;46.00
49148;DHT22;41980;45.550;12.070;2022-08-03T22:06:31;27.80;48.50
49148;DHT22;41980;45.550;12.070;2022-08-03T22:12:34;27.30;47.00
49148;DHT22;41980;45.550;12.070;2022-08-03T22:18:38;27.20;46.80
49148;DHT22;41980;45.550;12.070;2022-08-03T22:24:42;27.10;47.10
49148;DHT22;41980;45.550;12.070;2022-08-03T22:30:48;27.00;47.30
49148;DHT22;41980;45.550;12.070;2022-08-03T22:36:53;26.90;47.50
49148;DHT22;41980;45.550;12.070;2022-08-03T22:42:56;26.80;47.40
49148;DHT22;41980;45.550;12.070;2022-08-03T22:48:59;26.80;47.70
49148;DHT22;41980;45.550;12.070;2022-08-03T22:55:05;26.80;47.70
49148;DHT22;41980;45.550;12.070;2022-08-03T23:01:09;26.70;47.90
49148;DHT22;41980;45.550;12.070;2022-08-03T23:43:35;27.00;46.90
